Flight Track Log - Related Links

Times and Time Zones

All times are in EDT time to prevent confusion due to time zone crossing. See the N779NC flight status page for this flight to view local times or setup timezone preferences in your user account.

Time Position Orientation Groundspeed Altitude Reporting Facility
EDT Latitude Longitude Course Direction KTS MPH feet Rate Location/Type
Fri 07:01:44 PM 33.6500 -84.4667 349° North 168 193 2,500  Level Atlanta TRACON
Fri 07:02:50 PM 33.6667 -84.5500 284° West 256 295 4,200 2,190 Climbing Atlanta TRACON
Fri 07:03:50 PM 33.7333 -84.5833 337° Northwest 271 312 7,100 2,476 Climbing Atlanta TRACON
Fri 07:04:56 PM 33.8167 -84.5833 360° North 285 328 9,400 1,606 Climbing Atlanta TRACON
Fri 07:05:57 PM 33.9036 -84.5869 358° North 311 358 10,500 1,091 Climbing Atlanta Center
Fri 07:06:57 PM 33.9975 -84.6050 351° North 323 372 11,600 1,500 Climbing Atlanta Center
Fri 07:07:00 PM 34.2425 -84.5763 349° North  Level FlightAware Approximate
Fri 07:07:57 PM 34.0933 -84.6283 349° North 346 398 13,500  Level Atlanta Center
Fri 07:08:57 PM 34.1956 -84.6492 350° North 365 420 15,100 1,400 Climbing Atlanta Center
Fri 07:09:57 PM 34.2894 -84.6700 350° North 375 432 16,300 1,300 Climbing Atlanta Center
Fri 07:10:57 PM 34.4000 -84.6858 353° North 389 448 17,700 1,550 Climbing Atlanta Center
Fri 07:11:57 PM 34.5125 -84.7042 352° North 398 458 19,400 1,500 Climbing Atlanta Center
Fri 07:12:57 PM 34.6250 -84.7278 350° North 404 465 20,700 1,250 Climbing Atlanta Center
Fri 07:13:57 PM 34.7333 -84.7517 350° North 404 465 21,900 1,200 Climbing Atlanta Center
Fri 07:14:57 PM 34.8503 -84.7728 352° North 414 476 23,100 1,050 Climbing Atlanta Center
Fri 07:15:57 PM 34.9692 -84.7839 356° North 419 482 24,000 1,000 Climbing Atlanta Center
Fri 07:16:57 PM 35.0881 -84.7672 North 419 482 25,100 950 Climbing Atlanta Center
Fri 07:17:57 PM 35.2072 -84.7428 10° North 426 490 25,900 700 Climbing Atlanta Center
Fri 07:18:57 PM 35.3325 -84.7261 North 431 496 26,500 650 Climbing Atlanta Center
Fri 07:19:57 PM 35.4556 -84.7219 North 436 502 27,200 700 Climbing Atlanta Center
Fri 07:20:57 PM 35.5700 -84.7767 339° North 436 502 27,900 400 Climbing Atlanta Center
Fri 07:21:57 PM 35.6886 -84.8211 343° North 436 502 28,000 50 Climbing Atlanta Center
Fri 07:22:57 PM 35.8156 -84.8736 341° North 436 502 28,000  Level Atlanta Center
Fri 07:23:49 PM 35.9156 -84.9128 342° North 449 517 28,000  Level Indianapolis Center
Fri 07:24:51 PM 36.0331 -84.9525 345° North 445 512 28,000  Level Indianapolis Center
Fri 07:25:53 PM 36.1492 -85.0014 341° North 442 509 28,000 293 Level Indianapolis Center
Fri 07:26:54 PM 36.2689 -85.0419 345° North 445 512 28,600 927 Climbing Indianapolis Center
Fri 07:27:56 PM 36.4117 -85.0831 347° North 441 507 29,900 1,161 Climbing Indianapolis Center
Fri 07:28:58 PM 36.5269 -85.1247 344° North 432 497 31,000 878 Climbing Indianapolis Center
Fri 07:29:59 PM 36.6422 -85.1572 347° North 427 491 31,700 683 Climbing Indianapolis Center
Fri 07:31:01 PM 36.7575 -85.1922 346° North 426 490 32,400 634 Climbing Indianapolis Center
Fri 07:32:02 PM 36.8700 -85.2344 343° North 423 487 33,000 537 Climbing Indianapolis Center
Fri 07:33:04 PM 36.9853 -85.2675 347° North 423 487 33,500 488 Climbing Indianapolis Center
Fri 07:34:05 PM 37.1158 -85.2919 352° North 427 491 34,000 244 Climbing Indianapolis Center
Fri 07:35:07 PM 37.2314 -85.3253 347° North 424 488 34,000  Level Indianapolis Center
Fri 07:36:09 PM 37.3475 -85.3542 349° North 425 489 34,000  Level Indianapolis Center
Fri 07:37:10 PM 37.4667 -85.3758 352° North 429 494 34,000  Level Indianapolis Center
Fri 07:38:12 PM 37.5822 -85.4086 347° North 426 490 34,000  Level Indianapolis Center
Fri 07:39:13 PM 37.6956 -85.4428 347° North 420 483 34,000  Level Indianapolis Center
Fri 07:40:15 PM 37.8344 -85.4711 351° North 430 495 34,000  Level Indianapolis Center
Fri 07:41:17 PM 37.9558 -85.5033 348° North 432 497 34,000  Level Indianapolis Center
Fri 07:42:18 PM 38.0717 -85.5422 345° North 431 496 34,000  Level Indianapolis Center
Fri 07:43:20 PM 38.1906 -85.5728 349° North 434 499 34,000  Level Indianapolis Center
Fri 07:44:21 PM 38.3125 -85.5781 358° North 443 510 34,000  Level Indianapolis Center
Fri 07:45:23 PM 38.4372 -85.5833 358° North 447 514 34,000  Level Indianapolis Center
Fri 07:46:24 PM 38.5608 -85.5825 360° North 445 512 34,000 -195 Level Indianapolis Center
Fri 07:47:26 PM 38.6994 -85.5750 North 449 517 33,600 -634 Descending Indianapolis Center
Fri 07:48:27 PM 38.8253 -85.5711 North 453 521 32,700 -927 Descending Indianapolis Center
Fri 07:49:29 PM 38.9464 -85.5758 358° North 440 506 31,700 -927 Descending Indianapolis Center
Fri 07:50:30 PM 39.0675 -85.5900 355° North 438 504 30,800 -878 Descending Indianapolis Center
Fri 07:51:32 PM 39.1908 -85.5922 359° North 444 511 29,900 -488 Descending Indianapolis Center
Fri 07:52:33 PM 39.3150 -85.5944 359° North 447 514 29,800 -683 Descending Indianapolis Center
Fri 07:53:35 PM 39.4358 -85.6136 353° North 443 510 28,500 -1,220 Descending Indianapolis Center
Fri 07:54:36 PM 39.5833 -85.6378 353° North 448 516 27,300 -1,073 Descending Indianapolis Center
Fri 07:55:38 PM 39.7061 -85.6658 350° North 451 519 26,300 -634 Descending Indianapolis Center
Fri 07:56:39 PM 39.8278 -85.6897 351° North 447 514 26,000 -98 Descending Indianapolis Center
Fri 07:57:41 PM 39.9475 -85.7139 351° North 441 507 26,100  Climbing Indianapolis Center
Fri 07:58:43 PM 40.0700 -85.7139 360° North 444 511 26,000  Descending Indianapolis Center
Fri 07:59:44 PM 40.1686 -85.8039 325° Northwest 442 509 26,100 -195 Climbing Indianapolis Center
Fri 08:00:46 PM 40.2761 -85.9350 317° Northwest 444 511 25,600 -829 Descending Indianapolis Center
Fri 08:01:47 PM 40.3531 -86.0583 309° West 441 507 24,400 -1,220 Descending Indianapolis Center
Fri 08:02:49 PM 40.4386 -86.1686 316° Northwest 437 503 23,100 -1,113 Descending Indianapolis Center
Fri 08:03:51 PM 40.5442 -86.2431 332° Northwest 433 498 22,100 -537 Descending Indianapolis Center
Fri 08:04:52 PM 40.6494 -86.3083 335° Northwest 422 486 22,000 -49 Descending Indianapolis Center
Fri 08:05:54 PM 40.7561 -86.3750 335° Northwest 425 489 22,000 -195 Level Indianapolis Center
Fri 08:06:55 PM 40.8839 -86.4464 337° Northwest 417 480 21,600 -927 Descending Indianapolis Center
Fri 08:07:57 PM 40.9878 -86.4803 346° North 390 449 20,100 -1,403 Descending Indianapolis Center
Fri 08:08:59 PM 41.0900 -86.5208 343° North 385 443 18,700 -1,951 Descending Indianapolis Center
Fri 08:10:00 PM 41.1861 -86.5758 337° Northwest 378 435 16,100 -2,835 Descending Indianapolis Center
Fri 08:10:30 PM 41.2394 -86.5978 343° North 372 428 14,400 -3,400 Descending Chicago Center

Login

Don't have an account? Register now (free) for customized features, flight alerts, and more!